sensor_id;sensor_type;location;lat;lon;timestamp;P1;durP1;ratioP1;P2;durP2;ratioP2
65009;SDS011;51556;50.002;22.014;2023-07-29T00:00:39;3.80;;;2.60;;
65009;SDS011;51556;50.002;22.014;2023-07-29T00:03:05;4.50;;;2.50;;
65009;SDS011;51556;50.002;22.014;2023-07-29T00:05:30;5.00;;;2.40;;
65009;SDS011;51556;50.002;22.014;2023-07-29T00:07:56;2.90;;;2.20;;
65009;SDS011;51556;50.002;22.014;2023-07-29T00:10:21;4.20;;;2.10;;
65009;SDS011;51556;50.002;22.014;2023-07-29T00:12:47;3.70;;;2.20;;
65009;SDS011;51556;50.002;22.014;2023-07-29T00:15:12;2.30;;;1.80;;
65009;SDS011;51556;50.002;22.014;2023-07-29T00:17:38;5.60;;;2.20;;
65009;SDS011;51556;50.002;22.014;2023-07-29T00:20:04;3.40;;;2.00;;
65009;SDS011;51556;50.002;22.014;2023-07-29T00:22:30;4.60;;;2.20;;
65009;SDS011;51556;50.002;22.014;2023-07-29T00:24:55;4.60;;;2.20;;
65009;SDS011;51556;50.002;22.014;2023-07-29T00:27:22;3.80;;;2.20;;
65009;SDS011;51556;50.002;22.014;2023-07-29T00:29:48;2.70;;;2.00;;
65009;SDS011;51556;50.002;22.014;2023-07-29T00:32:13;5.10;;;2.10;;
65009;SDS011;51556;50.002;22.014;2023-07-29T00:34:38;5.10;;;2.30;;
65009;SDS011;51556;50.002;22.014;2023-07-29T00:37:04;4.40;;;2.40;;
65009;SDS011;51556;50.002;22.014;2023-07-29T00:39:31;3.10;;;1.90;;
65009;SDS011;51556;50.002;22.014;2023-07-29T00:41:56;3.30;;;1.90;;
65009;SDS011;51556;50.002;22.014;2023-07-29T00:44:22;5.20;;;1.90;;
65009;SDS011;51556;50.002;22.014;2023-07-29T00:46:47;3.00;;;2.20;;
65009;SDS011;51556;50.002;22.014;2023-07-29T00:49:17;2.50;;;1.80;;
65009;SDS011;51556;50.002;22.014;2023-07-29T00:51:43;2.80;;;1.70;;
65009;SDS011;51556;50.002;22.014;2023-07-29T00:54:08;3.00;;;1.90;;
65009;SDS011;51556;50.002;22.014;2023-07-29T00:56:34;3.80;;;2.20;;
65009;SDS011;51556;50.002;22.014;2023-07-29T00:59:00;3.20;;;1.90;;
65009;SDS011;51556;50.002;22.014;2023-07-29T01:01:30;2.20;;;1.80;;
65009;SDS011;51556;50.002;22.014;2023-07-29T01:03:57;3.80;;;2.30;;
65009;SDS011;51556;50.002;22.014;2023-07-29T01:08:55;4.30;;;1.90;;
65009;SDS011;51556;50.002;22.014;2023-07-29T01:11:51;3.30;;;2.00;;
65009;SDS011;51556;50.002;22.014;2023-07-29T01:17:12;2.90;;;1.90;;
65009;SDS011;51556;50.002;22.014;2023-07-29T01:22:18;4.90;;;2.40;;
65009;SDS011;51556;50.002;22.014;2023-07-29T01:24:46;7.00;;;1.90;;
65009;SDS011;51556;50.002;22.014;2023-07-29T01:27:11;4.20;;;2.00;;
65009;SDS011;51556;50.002;22.014;2023-07-29T01:29:37;2.20;;;1.90;;
65009;SDS011;51556;50.002;22.014;2023-07-29T01:32:13;3.80;;;1.80;;
65009;SDS011;51556;50.002;22.014;2023-07-29T01:35:00;5.20;;;2.10;;
65009;SDS011;51556;50.002;22.014;2023-07-29T01:37:34;5.50;;;2.30;;
65009;SDS011;51556;50.002;22.014;2023-07-29T01:40:02;3.30;;;1.70;;
65009;SDS011;51556;50.002;22.014;2023-07-29T01:42:30;3.30;;;1.80;;
65009;SDS011;51556;50.002;22.014;2023-07-29T01:44:57;4.40;;;2.00;;
65009;SDS011;51556;50.002;22.014;2023-07-29T01:47:22;2.30;;;1.80;;
65009;SDS011;51556;50.002;22.014;2023-07-29T01:49:48;6.40;;;2.10;;
65009;SDS011;51556;50.002;22.014;2023-07-29T01:52:13;4.30;;;2.60;;
65009;SDS011;51556;50.002;22.014;2023-07-29T01:54:39;3.70;;;2.00;;
65009;SDS011;51556;50.002;22.014;2023-07-29T01:57:04;2.60;;;1.60;;
65009;SDS011;51556;50.002;22.014;2023-07-29T01:59:30;2.90;;;2.20;;
65009;SDS011;51556;50.002;22.014;2023-07-29T02:01:55;6.60;;;1.90;;
65009;SDS011;51556;50.002;22.014;2023-07-29T02:04:21;5.40;;;1.90;;
65009;SDS011;51556;50.002;22.014;2023-07-29T02:06:47;7.10;;;2.50;;
65009;SDS011;51556;50.002;22.014;2023-07-29T02:09:12;2.70;;;2.00;;
65009;SDS011;51556;50.002;22.014;2023-07-29T02:11:38;3.90;;;2.20;;
65009;SDS011;51556;50.002;22.014;2023-07-29T02:14:03;3.80;;;2.00;;
65009;SDS011;51556;50.002;22.014;2023-07-29T02:16:29;6.30;;;2.00;;
65009;SDS011;51556;50.002;22.014;2023-07-29T02:18:54;3.20;;;1.90;;
65009;SDS011;51556;50.002;22.014;2023-07-29T02:21:19;3.80;;;2.10;;
65009;SDS011;51556;50.002;22.014;2023-07-29T02:23:45;4.20;;;2.10;;
65009;SDS011;51556;50.002;22.014;2023-07-29T02:26:10;4.50;;;1.90;;
65009;SDS011;51556;50.002;22.014;2023-07-29T02:28:36;3.20;;;1.70;;
65009;SDS011;51556;50.002;22.014;2023-07-29T02:33:45;9.00;;;2.80;;
65009;SDS011;51556;50.002;22.014;2023-07-29T02:36:11;3.80;;;2.00;;
65009;SDS011;51556;50.002;22.014;2023-07-29T02:38:38;4.00;;;2.20;;
65009;SDS011;51556;50.002;22.014;2023-07-29T02:41:03;4.00;;;2.40;;
65009;SDS011;51556;50.002;22.014;2023-07-29T02:43:29;5.80;;;2.10;;
65009;SDS011;51556;50.002;22.014;2023-07-29T02:45:54;9.10;;;2.60;;
65009;SDS011;51556;50.002;22.014;2023-07-29T02:48:19;5.70;;;2.10;;
65009;SDS011;51556;50.002;22.014;2023-07-29T02:50:45;6.30;;;2.00;;
65009;SDS011;51556;50.002;22.014;2023-07-29T02:53:10;3.80;;;2.20;;
65009;SDS011;51556;50.002;22.014;2023-07-29T02:55:39;6.60;;;2.20;;
65009;SDS011;51556;50.002;22.014;2023-07-29T02:58:04;4.40;;;2.00;;
65009;SDS011;51556;50.002;22.014;2023-07-29T03:00:31;5.60;;;2.20;;
65009;SDS011;51556;50.002;22.014;2023-07-29T03:02:58;4.70;;;2.10;;
65009;SDS011;51556;50.002;22.014;2023-07-29T03:05:23;5.40;;;1.90;;
65009;SDS011;51556;50.002;22.014;2023-07-29T03:07:49;5.50;;;2.00;;
65009;SDS011;51556;50.002;22.014;2023-07-29T03:10:14;6.60;;;2.10;;
65009;SDS011;51556;50.002;22.014;2023-07-29T03:12:40;4.90;;;1.70;;
65009;SDS011;51556;50.002;22.014;2023-07-29T03:15:05;3.00;;;2.00;;
65009;SDS011;51556;50.002;22.014;2023-07-29T03:17:31;6.40;;;3.00;;
65009;SDS011;51556;50.002;22.014;2023-07-29T03:19:57;3.30;;;2.00;;
65009;SDS011;51556;50.002;22.014;2023-07-29T03:22:22;5.90;;;2.80;;
65009;SDS011;51556;50.002;22.014;2023-07-29T03:24:48;5.70;;;3.00;;
65009;SDS011;51556;50.002;22.014;2023-07-29T03:27:13;5.50;;;2.40;;
65009;SDS011;51556;50.002;22.014;2023-07-29T03:29:41;3.00;;;2.40;;
65009;SDS011;51556;50.002;22.014;2023-07-29T03:32:06;4.10;;;2.30;;
65009;SDS011;51556;50.002;22.014;2023-07-29T03:34:32;6.30;;;2.10;;
65009;SDS011;51556;50.002;22.014;2023-07-29T03:36:59;4.00;;;2.20;;
65009;SDS011;51556;50.002;22.014;2023-07-29T03:39:25;4.20;;;2.80;;
65009;SDS011;51556;50.002;22.014;2023-07-29T03:41:51;6.70;;;2.50;;
65009;SDS011;51556;50.002;22.014;2023-07-29T03:44:16;4.60;;;2.10;;
65009;SDS011;51556;50.002;22.014;2023-07-29T03:46:43;3.40;;;2.10;;
65009;SDS011;51556;50.002;22.014;2023-07-29T03:49:09;7.00;;;2.90;;
65009;SDS011;51556;50.002;22.014;2023-07-29T03:51:34;15.70;;;2.50;;
65009;SDS011;51556;50.002;22.014;2023-07-29T03:54:00;4.20;;;2.00;;
65009;SDS011;51556;50.002;22.014;2023-07-29T03:56:25;2.60;;;2.10;;
65009;SDS011;51556;50.002;22.014;2023-07-29T03:58:52;4.00;;;2.20;;
65009;SDS011;51556;50.002;22.014;2023-07-29T04:01:17;3.20;;;2.00;;
65009;SDS011;51556;50.002;22.014;2023-07-29T04:03:44;5.20;;;1.90;;
65009;SDS011;51556;50.002;22.014;2023-07-29T04:06:11;2.60;;;1.90;;
65009;SDS011;51556;50.002;22.014;2023-07-29T04:08:37;5.20;;;1.80;;
65009;SDS011;51556;50.002;22.014;2023-07-29T04:11:02;6.10;;;2.40;;
65009;SDS011;51556;50.002;22.014;2023-07-29T04:13:28;7.50;;;2.20;;
65009;SDS011;51556;50.002;22.014;2023-07-29T04:15:53;3.40;;;2.10;;
65009;SDS011;51556;50.002;22.014;2023-07-29T04:18:19;2.70;;;1.90;;
65009;SDS011;51556;50.002;22.014;2023-07-29T04:20:44;6.20;;;2.00;;
65009;SDS011;51556;50.002;22.014;2023-07-29T04:23:10;4.10;;;1.60;;
65009;SDS011;51556;50.002;22.014;2023-07-29T04:25:35;3.10;;;1.80;;
65009;SDS011;51556;50.002;22.014;2023-07-29T04:28:01;3.40;;;1.80;;
65009;SDS011;51556;50.002;22.014;2023-07-29T04:30:28;6.00;;;1.90;;
65009;SDS011;51556;50.002;22.014;2023-07-29T04:32:53;4.50;;;2.10;;
65009;SDS011;51556;50.002;22.014;2023-07-29T04:35:19;3.30;;;2.10;;
65009;SDS011;51556;50.002;22.014;2023-07-29T04:37:44;4.80;;;1.90;;
65009;SDS011;51556;50.002;22.014;2023-07-29T04:40:10;4.10;;;2.20;;
65009;SDS011;51556;50.002;22.014;2023-07-29T04:42:36;2.90;;;2.10;;
65009;SDS011;51556;50.002;22.014;2023-07-29T04:45:02;3.90;;;1.70;;
65009;SDS011;51556;50.002;22.014;2023-07-29T04:47:28;4.70;;;2.00;;
65009;SDS011;51556;50.002;22.014;2023-07-29T04:49:53;4.20;;;2.00;;
65009;SDS011;51556;50.002;22.014;2023-07-29T04:52:19;3.70;;;1.80;;
65009;SDS011;51556;50.002;22.014;2023-07-29T04:54:45;3.30;;;1.70;;
65009;SDS011;51556;50.002;22.014;2023-07-29T04:57:10;3.30;;;1.90;;
65009;SDS011;51556;50.002;22.014;2023-07-29T04:59:35;1.80;;;1.50;;
65009;SDS011;51556;50.002;22.014;2023-07-29T05:02:01;5.30;;;1.80;;
65009;SDS011;51556;50.002;22.014;2023-07-29T05:04:26;3.90;;;1.70;;
65009;SDS011;51556;50.002;22.014;2023-07-29T05:06:52;3.20;;;2.00;;
65009;SDS011;51556;50.002;22.014;2023-07-29T05:09:18;3.70;;;1.70;;
65009;SDS011;51556;50.002;22.014;2023-07-29T05:11:45;5.40;;;2.30;;
65009;SDS011;51556;50.002;22.014;2023-07-29T05:14:12;4.10;;;1.70;;
65009;SDS011;51556;50.002;22.014;2023-07-29T05:16:38;3.80;;;1.80;;
65009;SDS011;51556;50.002;22.014;2023-07-29T05:19:04;3.40;;;1.80;;
65009;SDS011;51556;50.002;22.014;2023-07-29T05:21:29;4.40;;;2.30;;
65009;SDS011;51556;50.002;22.014;2023-07-29T05:23:55;5.40;;;1.70;;
65009;SDS011;51556;50.002;22.014;2023-07-29T05:26:21;2.90;;;1.70;;
65009;SDS011;51556;50.002;22.014;2023-07-29T05:28:47;4.50;;;1.90;;
65009;SDS011;51556;50.002;22.014;2023-07-29T05:31:12;2.70;;;1.70;;
65009;SDS011;51556;50.002;22.014;2023-07-29T05:33:38;2.60;;;1.60;;
65009;SDS011;51556;50.002;22.014;2023-07-29T05:36:03;3.40;;;2.00;;
65009;SDS011;51556;50.002;22.014;2023-07-29T05:38:30;2.30;;;1.70;;
65009;SDS011;51556;50.002;22.014;2023-07-29T05:40:55;3.80;;;2.00;;
65009;SDS011;51556;50.002;22.014;2023-07-29T05:43:21;3.60;;;1.70;;
65009;SDS011;51556;50.002;22.014;2023-07-29T05:45:46;2.30;;;1.40;;
65009;SDS011;51556;50.002;22.014;2023-07-29T05:48:12;3.40;;;1.80;;
65009;SDS011;51556;50.002;22.014;2023-07-29T05:50:37;6.30;;;1.90;;
65009;SDS011;51556;50.002;22.014;2023-07-29T05:53:02;4.80;;;1.90;;
65009;SDS011;51556;50.002;22.014;2023-07-29T05:55:28;2.90;;;1.60;;
65009;SDS011;51556;50.002;22.014;2023-07-29T05:57:54;2.30;;;1.70;;
65009;SDS011;51556;50.002;22.014;2023-07-29T06:00:20;3.20;;;1.80;;
65009;SDS011;51556;50.002;22.014;2023-07-29T06:02:45;4.70;;;1.90;;
65009;SDS011;51556;50.002;22.014;2023-07-29T06:05:11;2.60;;;1.30;;
65009;SDS011;51556;50.002;22.014;2023-07-29T06:07:37;2.10;;;1.40;;
65009;SDS011;51556;50.002;22.014;2023-07-29T06:10:03;2.40;;;1.80;;
65009;SDS011;51556;50.002;22.014;2023-07-29T06:12:28;2.90;;;1.60;;
65009;SDS011;51556;50.002;22.014;2023-07-29T06:14:54;4.70;;;1.80;;
65009;SDS011;51556;50.002;22.014;2023-07-29T06:17:19;3.30;;;2.00;;
65009;SDS011;51556;50.002;22.014;2023-07-29T06:19:45;3.50;;;1.90;;
65009;SDS011;51556;50.002;22.014;2023-07-29T06:22:10;2.00;;;1.70;;
65009;SDS011;51556;50.002;22.014;2023-07-29T06:24:35;3.40;;;1.70;;
65009;SDS011;51556;50.002;22.014;2023-07-29T06:27:01;2.60;;;1.60;;
65009;SDS011;51556;50.002;22.014;2023-07-29T06:29:26;2.90;;;1.70;;
65009;SDS011;51556;50.002;22.014;2023-07-29T06:31:52;3.20;;;1.90;;
65009;SDS011;51556;50.002;22.014;2023-07-29T06:34:17;3.70;;;1.80;;
65009;SDS011;51556;50.002;22.014;2023-07-29T06:36:43;3.00;;;2.00;;
65009;SDS011;51556;50.002;22.014;2023-07-29T06:39:09;4.50;;;2.00;;
65009;SDS011;51556;50.002;22.014;2023-07-29T06:41:35;5.90;;;1.90;;
65009;SDS011;51556;50.002;22.014;2023-07-29T06:44:00;3.60;;;2.00;;
65009;SDS011;51556;50.002;22.014;2023-07-29T06:46:26;4.00;;;1.80;;
65009;SDS011;51556;50.002;22.014;2023-07-29T06:48:51;2.60;;;1.70;;
65009;SDS011;51556;50.002;22.014;2023-07-29T06:51:17;3.80;;;2.30;;
65009;SDS011;51556;50.002;22.014;2023-07-29T06:53:42;3.90;;;2.10;;
65009;SDS011;51556;50.002;22.014;2023-07-29T06:56:07;3.80;;;2.00;;
65009;SDS011;51556;50.002;22.014;2023-07-29T06:58:34;4.30;;;1.90;;
65009;SDS011;51556;50.002;22.014;2023-07-29T07:00:59;3.80;;;2.00;;
65009;SDS011;51556;50.002;22.014;2023-07-29T07:03:25;3.60;;;2.10;;
65009;SDS011;51556;50.002;22.014;2023-07-29T07:05:50;2.80;;;1.90;;
65009;SDS011;51556;50.002;22.014;2023-07-29T07:08:16;3.20;;;2.00;;
65009;SDS011;51556;50.002;22.014;2023-07-29T07:10:41;3.40;;;2.10;;
65009;SDS011;51556;50.002;22.014;2023-07-29T07:13:07;2.40;;;1.70;;
65009;SDS011;51556;50.002;22.014;2023-07-29T07:15:32;5.80;;;2.10;;
65009;SDS011;51556;50.002;22.014;2023-07-29T07:17:58;2.70;;;2.20;;
65009;SDS011;51556;50.002;22.014;2023-07-29T07:20:24;2.20;;;1.70;;
65009;SDS011;51556;50.002;22.014;2023-07-29T07:22:50;2.70;;;1.60;;
65009;SDS011;51556;50.002;22.014;2023-07-29T07:25:16;2.90;;;1.70;;
65009;SDS011;51556;50.002;22.014;2023-07-29T07:27:41;3.10;;;1.80;;
65009;SDS011;51556;50.002;22.014;2023-07-29T07:30:07;3.20;;;1.90;;
65009;SDS011;51556;50.002;22.014;2023-07-29T07:32:32;3.70;;;2.00;;
65009;SDS011;51556;50.002;22.014;2023-07-29T07:34:58;4.50;;;1.80;;
65009;SDS011;51556;50.002;22.014;2023-07-29T07:37:23;2.90;;;1.70;;
65009;SDS011;51556;50.002;22.014;2023-07-29T07:39:49;3.60;;;1.90;;
65009;SDS011;51556;50.002;22.014;2023-07-29T07:42:14;3.60;;;2.10;;
65009;SDS011;51556;50.002;22.014;2023-07-29T07:44:40;5.00;;;2.00;;
65009;SDS011;51556;50.002;22.014;2023-07-29T07:47:05;3.50;;;1.90;;
65009;SDS011;51556;50.002;22.014;2023-07-29T07:49:31;7.40;;;2.10;;
65009;SDS011;51556;50.002;22.014;2023-07-29T07:51:56;2.80;;;1.80;;
65009;SDS011;51556;50.002;22.014;2023-07-29T07:54:22;4.30;;;2.00;;
65009;SDS011;51556;50.002;22.014;2023-07-29T07:56:47;3.30;;;1.90;;
65009;SDS011;51556;50.002;22.014;2023-07-29T07:59:12;5.00;;;2.00;;
65009;SDS011;51556;50.002;22.014;2023-07-29T08:01:38;3.30;;;2.50;;
65009;SDS011;51556;50.002;22.014;2023-07-29T08:04:04;2.60;;;1.80;;
65009;SDS011;51556;50.002;22.014;2023-07-29T08:06:30;4.20;;;2.10;;
65009;SDS011;51556;50.002;22.014;2023-07-29T08:08:56;5.10;;;2.10;;
65009;SDS011;51556;50.002;22.014;2023-07-29T08:11:22;1.90;;;1.60;;
65009;SDS011;51556;50.002;22.014;2023-07-29T08:13:48;2.00;;;1.50;;
65009;SDS011;51556;50.002;22.014;2023-07-29T08:16:13;2.80;;;2.10;;
65009;SDS011;51556;50.002;22.014;2023-07-29T08:18:39;2.90;;;1.70;;
65009;SDS011;51556;50.002;22.014;2023-07-29T08:21:04;2.40;;;1.80;;
65009;SDS011;51556;50.002;22.014;2023-07-29T08:23:30;4.40;;;1.90;;
65009;SDS011;51556;50.002;22.014;2023-07-29T08:25:58;3.00;;;1.70;;
65009;SDS011;51556;50.002;22.014;2023-07-29T08:28:34;3.10;;;1.70;;
65009;SDS011;51556;50.002;22.014;2023-07-29T08:31:01;1.80;;;1.40;;
65009;SDS011;51556;50.002;22.014;2023-07-29T08:33:27;3.80;;;1.70;;
65009;SDS011;51556;50.002;22.014;2023-07-29T08:35:54;2.40;;;1.90;;
65009;SDS011;51556;50.002;22.014;2023-07-29T08:38:19;3.10;;;1.60;;
65009;SDS011;51556;50.002;22.014;2023-07-29T08:40:49;2.30;;;1.50;;
65009;SDS011;51556;50.002;22.014;2023-07-29T08:43:23;2.60;;;1.80;;
65009;SDS011;51556;50.002;22.014;2023-07-29T08:45:54;4.40;;;1.70;;
65009;SDS011;51556;50.002;22.014;2023-07-29T08:48:23;5.50;;;1.60;;
65009;SDS011;51556;50.002;22.014;2023-07-29T08:51:14;2.00;;;1.30;;
65009;SDS011;51556;50.002;22.014;2023-07-29T08:53:42;2.30;;;1.50;;
65009;SDS011;51556;50.002;22.014;2023-07-29T08:56:08;1.90;;;1.70;;
65009;SDS011;51556;50.002;22.014;2023-07-29T08:58:33;2.70;;;1.40;;
65009;SDS011;51556;50.002;22.014;2023-07-29T09:01:00;2.10;;;1.50;;
65009;SDS011;51556;50.002;22.014;2023-07-29T09:03:25;1.70;;;1.30;;
65009;SDS011;51556;50.002;22.014;2023-07-29T09:05:51;3.60;;;1.90;;
65009;SDS011;51556;50.002;22.014;2023-07-29T09:08:18;1.80;;;1.60;;
65009;SDS011;51556;50.002;22.014;2023-07-29T09:10:44;3.70;;;1.50;;
65009;SDS011;51556;50.002;22.014;2023-07-29T09:13:10;3.00;;;2.10;;
65009;SDS011;51556;50.002;22.014;2023-07-29T09:15:36;2.80;;;1.60;;
65009;SDS011;51556;50.002;22.014;2023-07-29T09:20:54;1.80;;;1.70;;
65009;SDS011;51556;50.002;22.014;2023-07-29T09:23:24;2.60;;;1.50;;
65009;SDS011;51556;50.002;22.014;2023-07-29T09:25:49;4.20;;;1.40;;
65009;SDS011;51556;50.002;22.014;2023-07-29T09:28:15;3.40;;;1.60;;
65009;SDS011;51556;50.002;22.014;2023-07-29T09:30:42;2.40;;;1.60;;
65009;SDS011;51556;50.002;22.014;2023-07-29T09:33:09;2.50;;;1.80;;
65009;SDS011;51556;50.002;22.014;2023-07-29T09:35:35;1.60;;;1.40;;
65009;SDS011;51556;50.002;22.014;2023-07-29T09:38:03;1.80;;;1.20;;
65009;SDS011;51556;50.002;22.014;2023-07-29T09:40:35;1.60;;;1.50;;
65009;SDS011;51556;50.002;22.014;2023-07-29T09:43:05;2.90;;;1.60;;
65009;SDS011;51556;50.002;22.014;2023-07-29T09:45:33;4.80;;;1.70;;
65009;SDS011;51556;50.002;22.014;2023-07-29T09:47:59;3.60;;;1.70;;
65009;SDS011;51556;50.002;22.014;2023-07-29T09:50:25;3.40;;;1.70;;
65009;SDS011;51556;50.002;22.014;2023-07-29T09:52:52;4.30;;;1.80;;
65009;SDS011;51556;50.002;22.014;2023-07-29T09:55:19;3.80;;;1.80;;
65009;SDS011;51556;50.002;22.014;2023-07-29T09:57:56;2.80;;;1.50;;
65009;SDS011;51556;50.002;22.014;2023-07-29T10:00:23;2.30;;;1.80;;
65009;SDS011;51556;50.002;22.014;2023-07-29T10:02:48;4.80;;;1.80;;
65009;SDS011;51556;50.002;22.014;2023-07-29T10:05:15;3.40;;;1.80;;
65009;SDS011;51556;50.002;22.014;2023-07-29T10:07:41;5.20;;;1.90;;
65009;SDS011;51556;50.002;22.014;2023-07-29T10:10:07;2.80;;;1.90;;
65009;SDS011;51556;50.002;22.014;2023-07-29T10:12:33;2.70;;;2.00;;
65009;SDS011;51556;50.002;22.014;2023-07-29T10:15:01;4.10;;;1.90;;
65009;SDS011;51556;50.002;22.014;2023-07-29T10:17:29;2.70;;;2.00;;
65009;SDS011;51556;50.002;22.014;2023-07-29T10:19:56;3.80;;;1.70;;
65009;SDS011;51556;50.002;22.014;2023-07-29T10:22:26;3.40;;;2.00;;
65009;SDS011;51556;50.002;22.014;2023-07-29T10:24:54;1.70;;;1.50;;
65009;SDS011;51556;50.002;22.014;2023-07-29T10:27:24;2.10;;;1.70;;
65009;SDS011;51556;50.002;22.014;2023-07-29T10:29:52;1.70;;;1.30;;
65009;SDS011;51556;50.002;22.014;2023-07-29T10:32:21;3.70;;;1.60;;
65009;SDS011;51556;50.002;22.014;2023-07-29T10:34:50;2.50;;;1.70;;
65009;SDS011;51556;50.002;22.014;2023-07-29T10:37:16;1.60;;;1.20;;
65009;SDS011;51556;50.002;22.014;2023-07-29T10:39:51;4.60;;;1.50;;
65009;SDS011;51556;50.002;22.014;2023-07-29T10:42:18;6.70;;;1.90;;
65009;SDS011;51556;50.002;22.014;2023-07-29T10:44:47;1.60;;;1.40;;
65009;SDS011;51556;50.002;22.014;2023-07-29T10:49:55;3.00;;;1.60;;
65009;SDS011;51556;50.002;22.014;2023-07-29T10:52:30;1.90;;;1.50;;
65009;SDS011;51556;50.002;22.014;2023-07-29T10:55:02;6.10;;;1.60;;
65009;SDS011;51556;50.002;22.014;2023-07-29T10:59:58;3.20;;;1.90;;
65009;SDS011;51556;50.002;22.014;2023-07-29T11:02:37;2.30;;;1.70;;
65009;SDS011;51556;50.002;22.014;2023-07-29T11:05:16;3.30;;;1.60;;
65009;SDS011;51556;50.002;22.014;2023-07-29T11:07:46;4.70;;;1.50;;
65009;SDS011;51556;50.002;22.014;2023-07-29T11:10:13;2.90;;;1.40;;
65009;SDS011;51556;50.002;22.014;2023-07-29T11:20:36;3.30;;;1.40;;
65009;SDS011;51556;50.002;22.014;2023-07-29T11:23:02;2.40;;;1.30;;
65009;SDS011;51556;50.002;22.014;2023-07-29T11:25:29;2.20;;;1.20;;
65009;SDS011;51556;50.002;22.014;2023-07-29T11:27:56;2.40;;;1.30;;
65009;SDS011;51556;50.002;22.014;2023-07-29T11:30:23;2.10;;;1.20;;
65009;SDS011;51556;50.002;22.014;2023-07-29T11:32:52;1.30;;;1.20;;
65009;SDS011;51556;50.002;22.014;2023-07-29T11:35:19;1.40;;;1.30;;
65009;SDS011;51556;50.002;22.014;2023-07-29T11:37:49;2.50;;;1.30;;
65009;SDS011;51556;50.002;22.014;2023-07-29T11:40:20;3.10;;;1.40;;
65009;SDS011;51556;50.002;22.014;2023-07-29T11:42:48;1.70;;;1.30;;
65009;SDS011;51556;50.002;22.014;2023-07-29T11:45:16;1.90;;;0.90;;
65009;SDS011;51556;50.002;22.014;2023-07-29T11:47:42;1.30;;;0.90;;
65009;SDS011;51556;50.002;22.014;2023-07-29T11:50:08;1.40;;;1.00;;
65009;SDS011;51556;50.002;22.014;2023-07-29T11:52:39;2.00;;;1.20;;
65009;SDS011;51556;50.002;22.014;2023-07-29T11:55:08;1.70;;;1.50;;
65009;SDS011;51556;50.002;22.014;2023-07-29T12:00:13;2.40;;;1.30;;
65009;SDS011;51556;50.002;22.014;2023-07-29T12:02:40;1.50;;;1.40;;
65009;SDS011;51556;50.002;22.014;2023-07-29T12:05:16;3.20;;;1.20;;
65009;SDS011;51556;50.002;22.014;2023-07-29T12:07:44;1.80;;;0.90;;
65009;SDS011;51556;50.002;22.014;2023-07-29T12:10:12;2.70;;;1.20;;
65009;SDS011;51556;50.002;22.014;2023-07-29T12:12:45;0.80;;;0.80;;
65009;SDS011;51556;50.002;22.014;2023-07-29T12:18:17;2.40;;;1.00;;
65009;SDS011;51556;50.002;22.014;2023-07-29T12:21:03;1.20;;;1.10;;
65009;SDS011;51556;50.002;22.014;2023-07-29T12:23:28;1.70;;;1.20;;
65009;SDS011;51556;50.002;22.014;2023-07-29T12:25:58;1.50;;;1.10;;
65009;SDS011;51556;50.002;22.014;2023-07-29T12:28:25;1.60;;;1.10;;
65009;SDS011;51556;50.002;22.014;2023-07-29T12:30:54;3.10;;;1.10;;
65009;SDS011;51556;50.002;22.014;2023-07-29T12:39:20;2.50;;;1.00;;
65009;SDS011;51556;50.002;22.014;2023-07-29T12:42:13;2.00;;;0.80;;
65009;SDS011;51556;50.002;22.014;2023-07-29T12:44:39;1.90;;;1.00;;
65009;SDS011;51556;50.002;22.014;2023-07-29T12:47:05;3.10;;;1.20;;
65009;SDS011;51556;50.002;22.014;2023-07-29T12:49:33;1.80;;;1.10;;
65009;SDS011;51556;50.002;22.014;2023-07-29T12:51:59;1.40;;;1.00;;
65009;SDS011;51556;50.002;22.014;2023-07-29T12:54:25;1.70;;;1.20;;
65009;SDS011;51556;50.002;22.014;2023-07-29T12:56:51;1.60;;;1.30;;
65009;SDS011;51556;50.002;22.014;2023-07-29T12:59:16;1.50;;;1.20;;
65009;SDS011;51556;50.002;22.014;2023-07-29T13:01:42;2.50;;;1.10;;
65009;SDS011;51556;50.002;22.014;2023-07-29T13:04:11;1.70;;;1.10;;
65009;SDS011;51556;50.002;22.014;2023-07-29T13:06:37;1.80;;;1.30;;
65009;SDS011;51556;50.002;22.014;2023-07-29T13:09:02;2.00;;;1.30;;
65009;SDS011;51556;50.002;22.014;2023-07-29T13:11:28;1.50;;;1.40;;
65009;SDS011;51556;50.002;22.014;2023-07-29T13:14:04;6.40;;;1.70;;
65009;SDS011;51556;50.002;22.014;2023-07-29T13:16:30;1.20;;;1.00;;
65009;SDS011;51556;50.002;22.014;2023-07-29T13:18:55;2.00;;;1.30;;
65009;SDS011;51556;50.002;22.014;2023-07-29T13:21:27;1.30;;;1.00;;
65009;SDS011;51556;50.002;22.014;2023-07-29T13:23:53;4.50;;;1.30;;
65009;SDS011;51556;50.002;22.014;2023-07-29T13:26:19;2.60;;;1.40;;
65009;SDS011;51556;50.002;22.014;2023-07-29T13:28:44;3.00;;;1.20;;
65009;SDS011;51556;50.002;22.014;2023-07-29T13:31:10;1.30;;;1.20;;
65009;SDS011;51556;50.002;22.014;2023-07-29T13:33:36;2.10;;;1.40;;
65009;SDS011;51556;50.002;22.014;2023-07-29T13:36:02;1.90;;;1.50;;
65009;SDS011;51556;50.002;22.014;2023-07-29T13:38:28;2.20;;;1.40;;
65009;SDS011;51556;50.002;22.014;2023-07-29T13:40:55;2.40;;;1.70;;
65009;SDS011;51556;50.002;22.014;2023-07-29T13:43:29;3.90;;;1.60;;
65009;SDS011;51556;50.002;22.014;2023-07-29T13:45:55;1.70;;;1.30;;
65009;SDS011;51556;50.002;22.014;2023-07-29T13:48:20;4.50;;;1.60;;
65009;SDS011;51556;50.002;22.014;2023-07-29T13:50:46;2.00;;;1.60;;
65009;SDS011;51556;50.002;22.014;2023-07-29T13:53:12;2.50;;;1.60;;
65009;SDS011;51556;50.002;22.014;2023-07-29T13:55:37;3.00;;;1.80;;
65009;SDS011;51556;50.002;22.014;2023-07-29T13:58:03;3.30;;;1.70;;
65009;SDS011;51556;50.002;22.014;2023-07-29T14:00:28;2.10;;;1.60;;
65009;SDS011;51556;50.002;22.014;2023-07-29T14:02:54;3.40;;;1.50;;
65009;SDS011;51556;50.002;22.014;2023-07-29T14:05:19;2.10;;;1.50;;
65009;SDS011;51556;50.002;22.014;2023-07-29T14:07:45;2.40;;;1.60;;
65009;SDS011;51556;50.002;22.014;2023-07-29T14:10:11;2.20;;;1.70;;
65009;SDS011;51556;50.002;22.014;2023-07-29T14:12:36;1.90;;;1.50;;
65009;SDS011;51556;50.002;22.014;2023-07-29T14:15:02;2.50;;;1.90;;
65009;SDS011;51556;50.002;22.014;2023-07-29T14:17:29;2.30;;;2.00;;
65009;SDS011;51556;50.002;22.014;2023-07-29T14:19:54;3.30;;;2.10;;
65009;SDS011;51556;50.002;22.014;2023-07-29T14:22:20;3.10;;;1.90;;
65009;SDS011;51556;50.002;22.014;2023-07-29T14:24:45;3.60;;;1.90;;
65009;SDS011;51556;50.002;22.014;2023-07-29T14:27:11;4.40;;;2.20;;
65009;SDS011;51556;50.002;22.014;2023-07-29T14:29:36;2.70;;;2.10;;
65009;SDS011;51556;50.002;22.014;2023-07-29T14:32:02;3.50;;;2.20;;
65009;SDS011;51556;50.002;22.014;2023-07-29T14:34:27;4.10;;;2.70;;
65009;SDS011;51556;50.002;22.014;2023-07-29T14:36:54;4.90;;;2.00;;
65009;SDS011;51556;50.002;22.014;2023-07-29T14:39:35;4.40;;;2.20;;
65009;SDS011;51556;50.002;22.014;2023-07-29T14:42:01;3.40;;;2.40;;
65009;SDS011;51556;50.002;22.014;2023-07-29T14:44:26;4.80;;;2.40;;
65009;SDS011;51556;50.002;22.014;2023-07-29T14:46:52;3.00;;;2.10;;
65009;SDS011;51556;50.002;22.014;2023-07-29T14:49:18;2.70;;;1.90;;
65009;SDS011;51556;50.002;22.014;2023-07-29T14:51:44;4.00;;;1.80;;
65009;SDS011;51556;50.002;22.014;2023-07-29T14:54:09;3.70;;;2.40;;
65009;SDS011;51556;50.002;22.014;2023-07-29T14:56:35;5.20;;;2.40;;
65009;SDS011;51556;50.002;22.014;2023-07-29T14:59:00;4.00;;;2.50;;
65009;SDS011;51556;50.002;22.014;2023-07-29T15:01:26;4.00;;;2.30;;
65009;SDS011;51556;50.002;22.014;2023-07-29T15:03:51;3.00;;;2.20;;
65009;SDS011;51556;50.002;22.014;2023-07-29T15:06:17;3.60;;;2.40;;
65009;SDS011;51556;50.002;22.014;2023-07-29T15:08:43;3.60;;;2.50;;